<?xml version="1.0" encoding="UTF-8" standalone="no" ?>
<gpx xmlns="http://www.topografix.com/GPX/1/1" xmlns:xsi="http://www.w3.org/2001/XMLSchema-instance" xsi:schemaLocation="http://www.topografix.com/GPX/1/1 http://www.topografix.com/GPX/1/1/gpx.xsd" version="1.1" creator="VisuGPX - https://www.visugpx.com">
  <metadata>
    <name>Bourgogne 2016</name>
    <desc><![CDATA[Chalon sur Saone - Buxy]]></desc>
  </metadata>
  <trk>
    <name><![CDATA[Chalon_Buxy_parcours]]></name>
    <trkseg>
      <trkpt lat="46.7796" lon="4.85518">
        <ele>176.92578125</ele>
      </trkpt>
      <trkpt lat="46.77997" lon="4.85487">
        <ele>178.0859375</ele>
      </trkpt>
      <trkpt lat="46.78038" lon="4.85445">
        <ele>178</ele>
      </trkpt>
      <trkpt lat="46.78105" lon="4.85416">
        <ele>178</ele>
      </trkpt>
      <trkpt lat="46.78186" lon="4.85388">
        <ele>179</ele>
      </trkpt>
      <trkpt lat="46.78247" lon="4.85367">
        <ele>180</ele>
      </trkpt>
      <trkpt lat="46.78353" lon="4.85326">
        <ele>179</ele>
      </trkpt>
      <trkpt lat="46.78405" lon="4.853">
        <ele>179</ele>
      </trkpt>
      <trkpt lat="46.78423" lon="4.85246">
        <ele>179.83203125</ele>
      </trkpt>
      <trkpt lat="46.78383" lon="4.85072">
        <ele>180.31640625</ele>
      </trkpt>
      <trkpt lat="46.7836" lon="4.84972">
        <ele>180.5703125</ele>
      </trkpt>
      <trkpt lat="46.78342" lon="4.84889">
        <ele>179.921875</ele>
      </trkpt>
      <trkpt lat="46.78325" lon="4.84804">
        <ele>179.1796875</ele>
      </trkpt>
      <trkpt lat="46.78325" lon="4.84806">
        <ele>179.1953125</ele>
      </trkpt>
      <trkpt lat="46.78313" lon="4.84742">
        <ele>180</ele>
      </trkpt>
      <trkpt lat="46.78313" lon="4.84743">
        <ele>180</ele>
      </trkpt>
      <trkpt lat="46.78308" lon="4.84694">
        <ele>180</ele>
      </trkpt>
      <trkpt lat="46.78294" lon="4.84652">
        <ele>180.88671875</ele>
      </trkpt>
      <trkpt lat="46.78261" lon="4.84563">
        <ele>180.90234375</ele>
      </trkpt>
      <trkpt lat="46.78261" lon="4.84564">
        <ele>180.94921875</ele>
      </trkpt>
      <trkpt lat="46.78227" lon="4.8449">
        <ele>178</ele>
      </trkpt>
      <trkpt lat="46.78216" lon="4.8446">
        <ele>178</ele>
      </trkpt>
      <trkpt lat="46.7821" lon="4.84439">
        <ele>178</ele>
      </trkpt>
      <trkpt lat="46.78211" lon="4.84413">
        <ele>178</ele>
      </trkpt>
      <trkpt lat="46.78196" lon="4.84379">
        <ele>178</ele>
      </trkpt>
      <trkpt lat="46.78196" lon="4.84381">
        <ele>178</ele>
      </trkpt>
      <trkpt lat="46.78188" lon="4.84366">
        <ele>177.88671875</ele>
      </trkpt>
      <trkpt lat="46.78219" lon="4.84337">
        <ele>178</ele>
      </trkpt>
      <trkpt lat="46.78192" lon="4.84282">
        <ele>178.109375</ele>
      </trkpt>
      <trkpt lat="46.78192" lon="4.84281">
        <ele>178.1328125</ele>
      </trkpt>
      <trkpt lat="46.78167" lon="4.84213">
        <ele>181.796875</ele>
      </trkpt>
      <trkpt lat="46.78187" lon="4.84194">
        <ele>182.10546875</ele>
      </trkpt>
      <trkpt lat="46.78201" lon="4.84181">
        <ele>182.0703125</ele>
      </trkpt>
      <trkpt lat="46.78208" lon="4.8416">
        <ele>182.98828125</ele>
      </trkpt>
      <trkpt lat="46.78211" lon="4.84118">
        <ele>185.5546875</ele>
      </trkpt>
      <trkpt lat="46.78221" lon="4.84105">
        <ele>185.1796875</ele>
      </trkpt>
      <trkpt lat="46.78215" lon="4.84094">
        <ele>186.28515625</ele>
      </trkpt>
      <trkpt lat="46.78205" lon="4.84098">
        <ele>186.86328125</ele>
      </trkpt>
      <trkpt lat="46.78187" lon="4.84088">
        <ele>187</ele>
      </trkpt>
      <trkpt lat="46.78167" lon="4.84079">
        <ele>187</ele>
      </trkpt>
      <trkpt lat="46.78149" lon="4.84069">
        <ele>187</ele>
      </trkpt>
      <trkpt lat="46.7813" lon="4.84042">
        <ele>187</ele>
      </trkpt>
      <trkpt lat="46.78094" lon="4.83975">
        <ele>187</ele>
      </trkpt>
      <trkpt lat="46.78066" lon="4.83934">
        <ele>186.99609375</ele>
      </trkpt>
      <trkpt lat="46.78038" lon="4.83887">
        <ele>187</ele>
      </trkpt>
      <trkpt lat="46.78008" lon="4.83838">
        <ele>187</ele>
      </trkpt>
      <trkpt lat="46.77963" lon="4.83775">
        <ele>187</ele>
      </trkpt>
      <trkpt lat="46.7795" lon="4.83761">
        <ele>187</ele>
      </trkpt>
      <trkpt lat="46.77944" lon="4.83749">
        <ele>187</ele>
      </trkpt>
      <trkpt lat="46.77935" lon="4.83742">
        <ele>187</ele>
      </trkpt>
      <trkpt lat="46.77908" lon="4.8371">
        <ele>186.29296875</ele>
      </trkpt>
      <trkpt lat="46.77912" lon="4.83694">
        <ele>186.03125</ele>
      </trkpt>
      <trkpt lat="46.77894" lon="4.83675">
        <ele>184.7578125</ele>
      </trkpt>
      <trkpt lat="46.77889" lon="4.83607">
        <ele>182.08203125</ele>
      </trkpt>
      <trkpt lat="46.7793" lon="4.83387">
        <ele>178.51953125</ele>
      </trkpt>
      <trkpt lat="46.77943" lon="4.83332">
        <ele>176.5546875</ele>
      </trkpt>
      <trkpt lat="46.77927" lon="4.83266">
        <ele>175</ele>
      </trkpt>
      <trkpt lat="46.77827" lon="4.82872">
        <ele>176.0078125</ele>
      </trkpt>
      <trkpt lat="46.77821" lon="4.82833">
        <ele>177</ele>
      </trkpt>
      <trkpt lat="46.77821" lon="4.82835">
        <ele>177</ele>
      </trkpt>
      <trkpt lat="46.77797" lon="4.82839">
        <ele>177</ele>
      </trkpt>
      <trkpt lat="46.77733" lon="4.82898">
        <ele>176.09765625</ele>
      </trkpt>
      <trkpt lat="46.77732" lon="4.82898">
        <ele>176.1484375</ele>
      </trkpt>
      <trkpt lat="46.7765" lon="4.82954">
        <ele>176.07421875</ele>
      </trkpt>
      <trkpt lat="46.77625" lon="4.82966">
        <ele>176.56640625</ele>
      </trkpt>
      <trkpt lat="46.77628" lon="4.82965">
        <ele>177.3</ele>
        <time>2010-01-01T05:15:19Z</time>
      </trkpt>
      <trkpt lat="46.7764" lon="4.82898">
        <ele>178</ele>
        <time>2010-01-01T05:15:38Z</time>
      </trkpt>
      <trkpt lat="46.77657" lon="4.82794">
        <ele>178.3</ele>
        <time>2010-01-01T05:16:07Z</time>
      </trkpt>
      <trkpt lat="46.77682" lon="4.82646">
        <ele>181.3</ele>
        <time>2010-01-01T05:16:49Z</time>
      </trkpt>
      <trkpt lat="46.77773" lon="4.82101">
        <ele>188.7</ele>
        <time>2010-01-01T05:19:23Z</time>
      </trkpt>
      <trkpt lat="46.77796" lon="4.81952">
        <ele>194.3</ele>
        <time>2010-01-01T05:20:05Z</time>
      </trkpt>
      <trkpt lat="46.77797" lon="4.81946">
        <ele>194</ele>
        <time>2010-01-01T05:20:06Z</time>
      </trkpt>
      <trkpt lat="46.77797" lon="4.81946">
        <ele>194</ele>
        <time>2010-01-01T04:59:26Z</time>
      </trkpt>
      <trkpt lat="46.7782" lon="4.81809">
        <ele>191.8</ele>
        <time>2010-01-01T05:00:05Z</time>
      </trkpt>
      <trkpt lat="46.77873" lon="4.81478">
        <ele>198.9</ele>
        <time>2010-01-01T05:01:38Z</time>
      </trkpt>
      <trkpt lat="46.77873" lon="4.81478">
        <ele>198.9</ele>
        <time>2010-01-01T05:01:38Z</time>
      </trkpt>
      <trkpt lat="46.77951" lon="4.80981">
        <ele>204.1</ele>
        <time>2010-01-01T05:03:58Z</time>
      </trkpt>
      <trkpt lat="46.78035" lon="4.80491">
        <ele>203</ele>
        <time>2010-01-01T05:06:17Z</time>
      </trkpt>
      <trkpt lat="46.78158" lon="4.79767">
        <ele>200.7</ele>
        <time>2010-01-01T05:09:41Z</time>
      </trkpt>
      <trkpt lat="46.78173" lon="4.79678">
        <ele>200</ele>
        <time>2010-01-01T05:10:06Z</time>
      </trkpt>
      <trkpt lat="46.78215" lon="4.79431">
        <ele>200</ele>
        <time>2010-01-01T05:11:16Z</time>
      </trkpt>
      <trkpt lat="46.78245" lon="4.79215">
        <ele>201</ele>
        <time>2010-01-01T05:12:16Z</time>
      </trkpt>
      <trkpt lat="46.78334" lon="4.78566">
        <ele>189.5</ele>
        <time>2010-01-01T05:15:18Z</time>
      </trkpt>
      <trkpt lat="46.78335" lon="4.78562">
        <ele>189.6</ele>
        <time>2010-01-01T05:15:19Z</time>
      </trkpt>
      <trkpt lat="46.78335" lon="4.78562">
        <ele>189.6</ele>
        <time>2010-01-01T04:42:24Z</time>
      </trkpt>
      <trkpt lat="46.78402" lon="4.78077">
        <ele>188.1</ele>
        <time>2010-01-01T04:44:39Z</time>
      </trkpt>
      <trkpt lat="46.78504" lon="4.77282">
        <ele>197</ele>
        <time>2010-01-01T04:48:21Z</time>
      </trkpt>
      <trkpt lat="46.78507" lon="4.77164">
        <ele>198.2</ele>
        <time>2010-01-01T04:48:53Z</time>
      </trkpt>
      <trkpt lat="46.78434" lon="4.76565">
        <ele>200.8</ele>
        <time>2010-01-01T04:51:40Z</time>
      </trkpt>
      <trkpt lat="46.78333" lon="4.75668">
        <ele>206</ele>
        <time>2010-01-01T04:55:49Z</time>
      </trkpt>
      <trkpt lat="46.78289" lon="4.75282">
        <ele>211.2</ele>
        <time>2010-01-01T04:57:37Z</time>
      </trkpt>
      <trkpt lat="46.78274" lon="4.75196">
        <ele>210.9</ele>
        <time>2010-01-01T04:58:01Z</time>
      </trkpt>
      <trkpt lat="46.78249" lon="4.75123">
        <ele>209.6</ele>
        <time>2010-01-01T04:58:23Z</time>
      </trkpt>
      <trkpt lat="46.78218" lon="4.75063">
        <ele>209</ele>
        <time>2010-01-01T04:58:44Z</time>
      </trkpt>
      <trkpt lat="46.78175" lon="4.74996">
        <ele>209.4</ele>
        <time>2010-01-01T04:59:09Z</time>
      </trkpt>
      <trkpt lat="46.78145" lon="4.74969">
        <ele>210</ele>
        <time>2010-01-01T04:59:23Z</time>
      </trkpt>
      <trkpt lat="46.78136" lon="4.74967">
        <ele>209.9</ele>
        <time>2010-01-01T04:59:26Z</time>
      </trkpt>
      <trkpt lat="46.78136" lon="4.74967">
        <ele>209.9</ele>
        <time>2010-01-01T13:39:31Z</time>
      </trkpt>
      <trkpt lat="46.78147" lon="4.74915">
        <ele>210.3</ele>
        <time>2010-01-01T13:39:45Z</time>
      </trkpt>
      <trkpt lat="46.7811" lon="4.74895">
        <ele>210</ele>
        <time>2010-01-01T13:40:01Z</time>
      </trkpt>
      <trkpt lat="46.7809" lon="4.74941">
        <ele>209.3</ele>
        <time>2010-01-01T13:40:16Z</time>
      </trkpt>
      <trkpt lat="46.77987" lon="4.7488">
        <ele>209</ele>
        <time>2010-01-01T13:41:01Z</time>
      </trkpt>
      <trkpt lat="46.77987" lon="4.7488">
        <ele>209</ele>
        <time>2010-01-01T13:25:18Z</time>
      </trkpt>
      <trkpt lat="46.77788" lon="4.74762">
        <ele>209</ele>
        <time>2010-01-01T13:26:44Z</time>
      </trkpt>
      <trkpt lat="46.77552" lon="4.74632">
        <ele>210</ele>
        <time>2010-01-01T13:28:25Z</time>
      </trkpt>
      <trkpt lat="46.77306" lon="4.74494">
        <ele>212.4</ele>
        <time>2010-01-01T13:30:10Z</time>
      </trkpt>
      <trkpt lat="46.77128" lon="4.74395">
        <ele>211.8</ele>
        <time>2010-01-01T13:31:26Z</time>
      </trkpt>
      <trkpt lat="46.76942" lon="4.74292">
        <ele>214</ele>
        <time>2010-01-01T13:32:46Z</time>
      </trkpt>
      <trkpt lat="46.76555" lon="4.74072">
        <ele>220</ele>
        <time>2010-01-01T13:35:32Z</time>
      </trkpt>
      <trkpt lat="46.76414" lon="4.7399">
        <ele>224</ele>
        <time>2010-01-01T13:36:33Z</time>
      </trkpt>
      <trkpt lat="46.76332" lon="4.73923">
        <ele>224.2</ele>
        <time>2010-01-01T13:37:11Z</time>
      </trkpt>
      <trkpt lat="46.76228" lon="4.73813">
        <ele>224</ele>
        <time>2010-01-01T13:38:02Z</time>
      </trkpt>
      <trkpt lat="46.76202" lon="4.7378">
        <ele>224</ele>
        <time>2010-01-01T13:38:16Z</time>
      </trkpt>
      <trkpt lat="46.76169" lon="4.73738">
        <ele>224</ele>
        <time>2010-01-01T13:38:34Z</time>
      </trkpt>
      <trkpt lat="46.7606" lon="4.73603">
        <ele>224.4</ele>
        <time>2010-01-01T13:39:31Z</time>
      </trkpt>
      <trkpt lat="46.7606" lon="4.73603">
        <ele>224.4</ele>
        <time>2010-01-01T04:32:34Z</time>
      </trkpt>
      <trkpt lat="46.75937" lon="4.73449">
        <ele>223.5</ele>
        <time>2010-01-01T04:33:39Z</time>
      </trkpt>
      <trkpt lat="46.75913" lon="4.73441">
        <ele>224.3</ele>
        <time>2010-01-01T04:33:49Z</time>
      </trkpt>
      <trkpt lat="46.7589" lon="4.73438">
        <ele>223.7</ele>
        <time>2010-01-01T04:33:58Z</time>
      </trkpt>
      <trkpt lat="46.75878" lon="4.73431">
        <ele>223.1</ele>
        <time>2010-01-01T04:34:03Z</time>
      </trkpt>
      <trkpt lat="46.7587" lon="4.73417">
        <ele>222.5</ele>
        <time>2010-01-01T04:34:09Z</time>
      </trkpt>
      <trkpt lat="46.75858" lon="4.7337">
        <ele>221.6</ele>
        <time>2010-01-01T04:34:22Z</time>
      </trkpt>
      <trkpt lat="46.75846" lon="4.73333">
        <ele>221.5</ele>
        <time>2010-01-01T04:34:33Z</time>
      </trkpt>
      <trkpt lat="46.75785" lon="4.73255">
        <ele>220.3</ele>
        <time>2010-01-01T04:35:06Z</time>
      </trkpt>
      <trkpt lat="46.75736" lon="4.73193">
        <ele>220</ele>
        <time>2010-01-01T04:35:32Z</time>
      </trkpt>
      <trkpt lat="46.75537" lon="4.72942">
        <ele>215.1</ele>
        <time>2010-01-01T04:37:17Z</time>
      </trkpt>
      <trkpt lat="46.75387" lon="4.72741">
        <ele>217.7</ele>
        <time>2010-01-01T04:38:39Z</time>
      </trkpt>
      <trkpt lat="46.75372" lon="4.72726">
        <ele>217.9</ele>
        <time>2010-01-01T04:38:46Z</time>
      </trkpt>
      <trkpt lat="46.75353" lon="4.72705">
        <ele>218.2</ele>
        <time>2010-01-01T04:38:56Z</time>
      </trkpt>
      <trkpt lat="46.75325" lon="4.72673">
        <ele>217.8</ele>
        <time>2010-01-01T04:39:10Z</time>
      </trkpt>
      <trkpt lat="46.75238" lon="4.7258">
        <ele>217</ele>
        <time>2010-01-01T04:39:53Z</time>
      </trkpt>
      <trkpt lat="46.75139" lon="4.72514">
        <ele>217</ele>
        <time>2010-01-01T04:40:36Z</time>
      </trkpt>
      <trkpt lat="46.75015" lon="4.72437">
        <ele>216.7</ele>
        <time>2010-01-01T04:41:31Z</time>
      </trkpt>
      <trkpt lat="46.74939" lon="4.72401">
        <ele>215.9</ele>
        <time>2010-01-01T04:42:02Z</time>
      </trkpt>
      <trkpt lat="46.7489" lon="4.72374">
        <ele>216</ele>
        <time>2010-01-01T04:42:24Z</time>
      </trkpt>
      <trkpt lat="46.7489" lon="4.72374">
        <ele>216</ele>
        <time>2010-01-01T04:28:38Z</time>
      </trkpt>
      <trkpt lat="46.74881" lon="4.72369">
        <ele>215.7</ele>
        <time>2010-01-01T04:28:41Z</time>
      </trkpt>
      <trkpt lat="46.7481" lon="4.72349">
        <ele>214.2</ele>
        <time>2010-01-01T04:29:10Z</time>
      </trkpt>
      <trkpt lat="46.747" lon="4.72333">
        <ele>216</ele>
        <time>2010-01-01T04:29:54Z</time>
      </trkpt>
      <trkpt lat="46.74597" lon="4.72315">
        <ele>215.7</ele>
        <time>2010-01-01T04:30:36Z</time>
      </trkpt>
      <trkpt lat="46.74496" lon="4.72296">
        <ele>215</ele>
        <time>2010-01-01T04:31:17Z</time>
      </trkpt>
      <trkpt lat="46.74382" lon="4.72277">
        <ele>214</ele>
        <time>2010-01-01T04:32:03Z</time>
      </trkpt>
      <trkpt lat="46.74304" lon="4.72264">
        <ele>213.9</ele>
        <time>2010-01-01T04:32:34Z</time>
      </trkpt>
      <trkpt lat="46.74304" lon="4.72264">
        <ele>213.9</ele>
        <time>2010-01-01T04:21:18Z</time>
      </trkpt>
      <trkpt lat="46.74267" lon="4.72258">
        <ele>213</ele>
        <time>2010-01-01T04:21:33Z</time>
      </trkpt>
      <trkpt lat="46.74195" lon="4.72246">
        <ele>213</ele>
        <time>2010-01-01T04:22:02Z</time>
      </trkpt>
      <trkpt lat="46.7391" lon="4.72195">
        <ele>210</ele>
        <time>2010-01-01T04:23:56Z</time>
      </trkpt>
      <trkpt lat="46.73691" lon="4.72155">
        <ele>212.5</ele>
        <time>2010-01-01T04:25:25Z</time>
      </trkpt>
      <trkpt lat="46.73572" lon="4.72135">
        <ele>214.2</ele>
        <time>2010-01-01T04:26:13Z</time>
      </trkpt>
      <trkpt lat="46.73527" lon="4.72127">
        <ele>215.4</ele>
        <time>2010-01-01T04:26:31Z</time>
      </trkpt>
      <trkpt lat="46.73477" lon="4.72119">
        <ele>215.1</ele>
        <time>2010-01-01T04:26:51Z</time>
      </trkpt>
      <trkpt lat="46.73417" lon="4.72109">
        <ele>216.1</ele>
        <time>2010-01-01T04:27:15Z</time>
      </trkpt>
      <trkpt lat="46.73388" lon="4.72098">
        <ele>216.5</ele>
        <time>2010-01-01T04:27:27Z</time>
      </trkpt>
      <trkpt lat="46.73335" lon="4.72082">
        <ele>216.1</ele>
        <time>2010-01-01T04:27:49Z</time>
      </trkpt>
      <trkpt lat="46.73222" lon="4.72019">
        <ele>219.3</ele>
        <time>2010-01-01T04:28:38Z</time>
      </trkpt>
      <trkpt lat="46.73222" lon="4.72019">
        <ele>219.3</ele>
        <time>2010-01-01T04:14:06Z</time>
      </trkpt>
      <trkpt lat="46.73182" lon="4.71997">
        <ele>220.5</ele>
        <time>2010-01-01T04:14:23Z</time>
      </trkpt>
      <trkpt lat="46.72988" lon="4.7187">
        <ele>225.3</ele>
        <time>2010-01-01T04:15:49Z</time>
      </trkpt>
      <trkpt lat="46.72786" lon="4.71749">
        <ele>223.3</ele>
        <time>2010-01-01T04:17:16Z</time>
      </trkpt>
      <trkpt lat="46.72581" lon="4.71615">
        <ele>222.2</ele>
        <time>2010-01-01T04:18:46Z</time>
      </trkpt>
      <trkpt lat="46.72513" lon="4.7156">
        <ele>222</ele>
        <time>2010-01-01T04:19:17Z</time>
      </trkpt>
      <trkpt lat="46.72399" lon="4.71438">
        <ele>228.4</ele>
        <time>2010-01-01T04:20:14Z</time>
      </trkpt>
      <trkpt lat="46.72284" lon="4.71321">
        <ele>232.2</ele>
        <time>2010-01-01T04:21:10Z</time>
      </trkpt>
      <trkpt lat="46.71933" lon="4.70955">
        <ele>236.6</ele>
        <time>2010-01-01T04:14:06Z</time>
      </trkpt>
      <trkpt lat="46.71777" lon="4.70795">
        <ele>236.4</ele>
        <time>2010-01-01T13:42:44Z</time>
      </trkpt>
      <trkpt lat="46.7171" lon="4.70724">
        <ele>237</ele>
        <time>2010-01-01T13:43:17Z</time>
      </trkpt>
      <trkpt lat="46.7171" lon="4.70724">
        <ele>237</ele>
        <time>2010-01-01T13:43:17Z</time>
      </trkpt>
      <trkpt lat="46.71601" lon="4.7061">
        <ele>237.8</ele>
        <time>2010-01-01T13:44:11Z</time>
      </trkpt>
      <trkpt lat="46.71386" lon="4.70385">
        <ele>237.2</ele>
        <time>2010-01-01T13:41:01Z</time>
      </trkpt>
      <trkpt lat="46.7138" lon="4.70378">
        <ele>237.5</ele>
        <time>2010-01-01T13:41:04Z</time>
      </trkpt>
      <trkpt lat="46.71367" lon="4.70361">
        <ele>237.2</ele>
        <time>2010-01-01T13:41:11Z</time>
      </trkpt>
      <trkpt lat="46.7136" lon="4.70337">
        <ele>238.7</ele>
        <time>2010-01-01T13:41:18Z</time>
      </trkpt>
      <trkpt lat="46.71353" lon="4.70326">
        <ele>238.7</ele>
        <time>2010-01-01T13:41:22Z</time>
      </trkpt>
    </trkseg>
  </trk>
</gpx>